sensor_id;sensor_type;location;lat;lon;timestamp;P1;durP1;ratioP1;P2;durP2;ratioP2
65377;SDS011;51982;51.042;13.806;2022-11-20T00:01:12;26.45;;;10.88;;
65377;SDS011;51982;51.042;13.806;2022-11-20T00:03:45;19.85;;;8.30;;
65377;SDS011;51982;51.042;13.806;2022-11-20T00:06:12;23.10;;;9.75;;
65377;SDS011;51982;51.042;13.806;2022-11-20T00:08:38;19.23;;;9.30;;
65377;SDS011;51982;51.042;13.806;2022-11-20T00:11:05;22.30;;;9.65;;
65377;SDS011;51982;51.042;13.806;2022-11-20T00:13:34;20.55;;;9.43;;
65377;SDS011;51982;51.042;13.806;2022-11-20T00:16:00;19.50;;;8.07;;
65377;SDS011;51982;51.042;13.806;2022-11-20T00:18:28;20.25;;;9.20;;
65377;SDS011;51982;51.042;13.806;2022-11-20T00:20:53;19.60;;;8.68;;
65377;SDS011;51982;51.042;13.806;2022-11-20T00:23:25;17.02;;;8.63;;
65377;SDS011;51982;51.042;13.806;2022-11-20T00:25:50;19.65;;;8.43;;
65377;SDS011;51982;51.042;13.806;2022-11-20T00:28:15;20.63;;;9.52;;
65377;SDS011;51982;51.042;13.806;2022-11-20T00:30:40;19.83;;;7.97;;
65377;SDS011;51982;51.042;13.806;2022-11-20T00:33:06;18.25;;;8.27;;
65377;SDS011;51982;51.042;13.806;2022-11-20T00:35:31;20.00;;;9.38;;
65377;SDS011;51982;51.042;13.806;2022-11-20T00:37:56;18.08;;;7.85;;
65377;SDS011;51982;51.042;13.806;2022-11-20T00:40:21;23.25;;;8.80;;
65377;SDS011;51982;51.042;13.806;2022-11-20T00:42:47;19.08;;;8.13;;
65377;SDS011;51982;51.042;13.806;2022-11-20T00:45:12;22.98;;;9.15;;
65377;SDS011;51982;51.042;13.806;2022-11-20T00:47:37;17.67;;;8.02;;
65377;SDS011;51982;51.042;13.806;2022-11-20T00:50:02;20.42;;;8.45;;
65377;SDS011;51982;51.042;13.806;2022-11-20T00:52:28;18.40;;;8.02;;
65377;SDS011;51982;51.042;13.806;2022-11-20T00:54:53;25.67;;;9.10;;
65377;SDS011;51982;51.042;13.806;2022-11-20T00:57:18;21.38;;;9.48;;
65377;SDS011;51982;51.042;13.806;2022-11-20T00:59:44;18.52;;;8.30;;
65377;SDS011;51982;51.042;13.806;2022-11-20T01:02:09;21.27;;;9.45;;
65377;SDS011;51982;51.042;13.806;2022-11-20T01:04:34;16.65;;;7.72;;
65377;SDS011;51982;51.042;13.806;2022-11-20T01:07:00;18.50;;;7.35;;
65377;SDS011;51982;51.042;13.806;2022-11-20T01:09:25;22.17;;;8.85;;
65377;SDS011;51982;51.042;13.806;2022-11-20T01:11:50;19.13;;;9.48;;
65377;SDS011;51982;51.042;13.806;2022-11-20T01:14:17;18.50;;;8.80;;
65377;SDS011;51982;51.042;13.806;2022-11-20T01:16:45;24.48;;;10.57;;
65377;SDS011;51982;51.042;13.806;2022-11-20T01:19:14;23.98;;;9.32;;
65377;SDS011;51982;51.042;13.806;2022-11-20T01:21:41;21.98;;;9.68;;
65377;SDS011;51982;51.042;13.806;2022-11-20T01:24:09;20.00;;;9.02;;
65377;SDS011;51982;51.042;13.806;2022-11-20T01:26:37;17.35;;;8.07;;
65377;SDS011;51982;51.042;13.806;2022-11-20T01:29:05;22.88;;;9.07;;
65377;SDS011;51982;51.042;13.806;2022-11-20T01:31:35;20.40;;;8.90;;
65377;SDS011;51982;51.042;13.806;2022-11-20T01:34:02;20.40;;;8.50;;
65377;SDS011;51982;51.042;13.806;2022-11-20T01:36:30;18.38;;;8.35;;
65377;SDS011;51982;51.042;13.806;2022-11-20T01:38:58;20.60;;;8.52;;
65377;SDS011;51982;51.042;13.806;2022-11-20T01:41:26;20.23;;;8.80;;
65377;SDS011;51982;51.042;13.806;2022-11-20T01:44:12;20.48;;;8.80;;
65377;SDS011;51982;51.042;13.806;2022-11-20T01:46:40;23.75;;;9.75;;
65377;SDS011;51982;51.042;13.806;2022-11-20T01:49:17;23.10;;;9.40;;
65377;SDS011;51982;51.042;13.806;2022-11-20T01:51:50;17.98;;;8.45;;
65377;SDS011;51982;51.042;13.806;2022-11-20T01:54:22;20.92;;;9.18;;
65377;SDS011;51982;51.042;13.806;2022-11-20T01:56:53;19.20;;;8.98;;
65377;SDS011;51982;51.042;13.806;2022-11-20T01:59:24;18.30;;;8.73;;
65377;SDS011;51982;51.042;13.806;2022-11-20T02:01:50;16.90;;;8.35;;
65377;SDS011;51982;51.042;13.806;2022-11-20T02:04:16;17.63;;;8.20;;
65377;SDS011;51982;51.042;13.806;2022-11-20T02:06:46;16.90;;;8.20;;
65377;SDS011;51982;51.042;13.806;2022-11-20T02:09:14;19.95;;;8.75;;
65377;SDS011;51982;51.042;13.806;2022-11-20T02:11:40;19.17;;;8.57;;
65377;SDS011;51982;51.042;13.806;2022-11-20T02:14:05;20.23;;;8.55;;
65377;SDS011;51982;51.042;13.806;2022-11-20T02:16:43;14.90;;;7.93;;
65377;SDS011;51982;51.042;13.806;2022-11-20T02:19:30;21.98;;;7.88;;
65377;SDS011;51982;51.042;13.806;2022-11-20T02:24:54;17.80;;;7.50;;
65377;SDS011;51982;51.042;13.806;2022-11-20T02:27:19;16.67;;;7.75;;
65377;SDS011;51982;51.042;13.806;2022-11-20T02:29:52;20.38;;;7.72;;
65377;SDS011;51982;51.042;13.806;2022-11-20T02:32:23;15.63;;;6.85;;
65377;SDS011;51982;51.042;13.806;2022-11-20T02:34:50;15.40;;;7.18;;
65377;SDS011;51982;51.042;13.806;2022-11-20T02:37:16;18.33;;;7.88;;
65377;SDS011;51982;51.042;13.806;2022-11-20T02:39:43;15.23;;;7.28;;
65377;SDS011;51982;51.042;13.806;2022-11-20T02:42:10;16.13;;;8.02;;
65377;SDS011;51982;51.042;13.806;2022-11-20T02:44:36;17.27;;;7.03;;
65377;SDS011;51982;51.042;13.806;2022-11-20T02:47:01;14.68;;;6.90;;
65377;SDS011;51982;51.042;13.806;2022-11-20T02:49:26;15.15;;;7.45;;
65377;SDS011;51982;51.042;13.806;2022-11-20T02:51:52;20.23;;;8.32;;
65377;SDS011;51982;51.042;13.806;2022-11-20T02:54:17;18.25;;;7.32;;
65377;SDS011;51982;51.042;13.806;2022-11-20T02:56:42;16.08;;;7.78;;
65377;SDS011;51982;51.042;13.806;2022-11-20T02:59:08;16.45;;;7.00;;
65377;SDS011;51982;51.042;13.806;2022-11-20T03:01:34;16.10;;;7.18;;
65377;SDS011;51982;51.042;13.806;2022-11-20T03:03:59;17.23;;;7.18;;
65377;SDS011;51982;51.042;13.806;2022-11-20T03:06:24;18.40;;;7.60;;
65377;SDS011;51982;51.042;13.806;2022-11-20T03:08:49;24.75;;;7.47;;
65377;SDS011;51982;51.042;13.806;2022-11-20T03:11:15;14.13;;;6.13;;
65377;SDS011;51982;51.042;13.806;2022-11-20T03:13:40;13.80;;;6.35;;
65377;SDS011;51982;51.042;13.806;2022-11-20T03:16:06;18.67;;;7.95;;
65377;SDS011;51982;51.042;13.806;2022-11-20T03:18:33;19.80;;;7.80;;
65377;SDS011;51982;51.042;13.806;2022-11-20T03:20:58;18.27;;;8.18;;
65377;SDS011;51982;51.042;13.806;2022-11-20T03:23:24;20.92;;;9.10;;
65377;SDS011;51982;51.042;13.806;2022-11-20T03:25:49;19.08;;;8.32;;
65377;SDS011;51982;51.042;13.806;2022-11-20T03:28:15;16.73;;;7.97;;
65377;SDS011;51982;51.042;13.806;2022-11-20T03:30:40;22.20;;;7.93;;
65377;SDS011;51982;51.042;13.806;2022-11-20T03:33:05;18.08;;;8.20;;
65377;SDS011;51982;51.042;13.806;2022-11-20T03:35:31;18.25;;;7.90;;
65377;SDS011;51982;51.042;13.806;2022-11-20T03:37:56;22.10;;;8.48;;
65377;SDS011;51982;51.042;13.806;2022-11-20T03:40:22;21.38;;;7.97;;
65377;SDS011;51982;51.042;13.806;2022-11-20T03:42:47;17.63;;;7.68;;
65377;SDS011;51982;51.042;13.806;2022-11-20T03:45:13;17.50;;;7.60;;
65377;SDS011;51982;51.042;13.806;2022-11-20T03:47:40;17.50;;;7.28;;
65377;SDS011;51982;51.042;13.806;2022-11-20T03:50:07;18.10;;;7.32;;
65377;SDS011;51982;51.042;13.806;2022-11-20T03:52:33;23.77;;;6.95;;
65377;SDS011;51982;51.042;13.806;2022-11-20T03:54:58;14.65;;;6.97;;
65377;SDS011;51982;51.042;13.806;2022-11-20T03:57:23;14.35;;;7.03;;
65377;SDS011;51982;51.042;13.806;2022-11-20T03:59:49;12.93;;;6.40;;
65377;SDS011;51982;51.042;13.806;2022-11-20T04:02:14;10.25;;;4.65;;
65377;SDS011;51982;51.042;13.806;2022-11-20T04:04:39;11.40;;;5.88;;
65377;SDS011;51982;51.042;13.806;2022-11-20T04:07:04;12.98;;;5.93;;
65377;SDS011;51982;51.042;13.806;2022-11-20T04:09:30;16.33;;;6.15;;
65377;SDS011;51982;51.042;13.806;2022-11-20T04:11:55;13.95;;;6.15;;
65377;SDS011;51982;51.042;13.806;2022-11-20T04:14:20;13.93;;;6.53;;
65377;SDS011;51982;51.042;13.806;2022-11-20T04:16:45;14.45;;;6.05;;
65377;SDS011;51982;51.042;13.806;2022-11-20T04:19:12;13.45;;;6.63;;
65377;SDS011;51982;51.042;13.806;2022-11-20T04:21:39;9.90;;;5.30;;
65377;SDS011;51982;51.042;13.806;2022-11-20T04:24:05;15.35;;;5.80;;
65377;SDS011;51982;51.042;13.806;2022-11-20T04:26:31;17.05;;;6.28;;
65377;SDS011;51982;51.042;13.806;2022-11-20T04:28:57;14.40;;;6.38;;
65377;SDS011;51982;51.042;13.806;2022-11-20T04:31:24;13.07;;;6.22;;
65377;SDS011;51982;51.042;13.806;2022-11-20T04:33:51;11.88;;;5.68;;
65377;SDS011;51982;51.042;13.806;2022-11-20T04:36:23;14.95;;;7.00;;
65377;SDS011;51982;51.042;13.806;2022-11-20T04:38:53;14.02;;;6.20;;
65377;SDS011;51982;51.042;13.806;2022-11-20T04:41:20;16.25;;;5.82;;
65377;SDS011;51982;51.042;13.806;2022-11-20T04:43:50;13.50;;;6.07;;
65377;SDS011;51982;51.042;13.806;2022-11-20T04:46:16;10.00;;;5.78;;
65377;SDS011;51982;51.042;13.806;2022-11-20T04:48:43;13.35;;;5.97;;
65377;SDS011;51982;51.042;13.806;2022-11-20T04:51:09;12.05;;;5.63;;
65377;SDS011;51982;51.042;13.806;2022-11-20T04:53:34;13.60;;;6.20;;
65377;SDS011;51982;51.042;13.806;2022-11-20T04:56:00;13.55;;;6.15;;
65377;SDS011;51982;51.042;13.806;2022-11-20T04:58:30;11.90;;;5.45;;
65377;SDS011;51982;51.042;13.806;2022-11-20T05:03:28;10.40;;;5.15;;
65377;SDS011;51982;51.042;13.806;2022-11-20T05:05:53;10.90;;;5.80;;
65377;SDS011;51982;51.042;13.806;2022-11-20T05:08:18;8.70;;;4.10;;
65377;SDS011;51982;51.042;13.806;2022-11-20T05:10:44;13.18;;;5.47;;
65377;SDS011;51982;51.042;13.806;2022-11-20T05:13:09;15.35;;;6.20;;
65377;SDS011;51982;51.042;13.806;2022-11-20T05:15:34;13.07;;;6.28;;
65377;SDS011;51982;51.042;13.806;2022-11-20T05:17:59;13.82;;;6.28;;
65377;SDS011;51982;51.042;13.806;2022-11-20T05:20:25;14.23;;;6.03;;
65377;SDS011;51982;51.042;13.806;2022-11-20T05:22:50;11.82;;;5.68;;
65377;SDS011;51982;51.042;13.806;2022-11-20T05:25:15;10.80;;;5.57;;
65377;SDS011;51982;51.042;13.806;2022-11-20T05:27:40;14.93;;;6.18;;
65377;SDS011;51982;51.042;13.806;2022-11-20T05:30:06;17.80;;;8.10;;
65377;SDS011;51982;51.042;13.806;2022-11-20T05:32:32;14.52;;;6.28;;
65377;SDS011;51982;51.042;13.806;2022-11-20T05:34:57;16.05;;;6.43;;
65377;SDS011;51982;51.042;13.806;2022-11-20T05:37:22;14.90;;;7.43;;
65377;SDS011;51982;51.042;13.806;2022-11-20T05:39:48;14.35;;;6.82;;
65377;SDS011;51982;51.042;13.806;2022-11-20T05:42:14;13.30;;;6.35;;
65377;SDS011;51982;51.042;13.806;2022-11-20T05:44:58;17.67;;;8.18;;
65377;SDS011;51982;51.042;13.806;2022-11-20T05:47:23;14.68;;;6.65;;
65377;SDS011;51982;51.042;13.806;2022-11-20T05:49:48;17.73;;;7.78;;
65377;SDS011;51982;51.042;13.806;2022-11-20T05:52:14;19.63;;;6.72;;
65377;SDS011;51982;51.042;13.806;2022-11-20T05:54:39;16.85;;;7.63;;
65377;SDS011;51982;51.042;13.806;2022-11-20T05:57:04;18.10;;;6.88;;
65377;SDS011;51982;51.042;13.806;2022-11-20T05:59:29;17.23;;;7.60;;
65377;SDS011;51982;51.042;13.806;2022-11-20T06:01:55;16.10;;;7.68;;
65377;SDS011;51982;51.042;13.806;2022-11-20T06:04:20;14.63;;;7.15;;
65377;SDS011;51982;51.042;13.806;2022-11-20T06:06:45;14.60;;;6.72;;
65377;SDS011;51982;51.042;13.806;2022-11-20T06:09:10;15.63;;;7.13;;
65377;SDS011;51982;51.042;13.806;2022-11-20T06:11:36;16.75;;;7.43;;
65377;SDS011;51982;51.042;13.806;2022-11-20T06:14:01;16.73;;;6.72;;
65377;SDS011;51982;51.042;13.806;2022-11-20T06:16:26;17.15;;;7.65;;
65377;SDS011;51982;51.042;13.806;2022-11-20T06:18:51;18.05;;;7.65;;
65377;SDS011;51982;51.042;13.806;2022-11-20T06:21:18;16.63;;;7.15;;
65377;SDS011;51982;51.042;13.806;2022-11-20T06:23:44;15.98;;;6.35;;
65377;SDS011;51982;51.042;13.806;2022-11-20T06:26:11;16.30;;;7.55;;
65377;SDS011;51982;51.042;13.806;2022-11-20T06:28:38;17.42;;;7.07;;
65377;SDS011;51982;51.042;13.806;2022-11-20T06:31:04;15.88;;;6.70;;
65377;SDS011;51982;51.042;13.806;2022-11-20T06:33:30;17.65;;;6.25;;
65377;SDS011;51982;51.042;13.806;2022-11-20T06:35:56;17.90;;;6.53;;
65377;SDS011;51982;51.042;13.806;2022-11-20T06:38:22;14.23;;;6.05;;
65377;SDS011;51982;51.042;13.806;2022-11-20T06:40:47;14.40;;;6.70;;
65377;SDS011;51982;51.042;13.806;2022-11-20T06:43:12;16.98;;;6.95;;
65377;SDS011;51982;51.042;13.806;2022-11-20T06:45:38;17.75;;;8.02;;
65377;SDS011;51982;51.042;13.806;2022-11-20T06:48:03;15.48;;;6.65;;
65377;SDS011;51982;51.042;13.806;2022-11-20T06:50:29;15.27;;;6.22;;
65377;SDS011;51982;51.042;13.806;2022-11-20T06:52:54;17.05;;;6.95;;
65377;SDS011;51982;51.042;13.806;2022-11-20T06:55:19;18.20;;;5.95;;
65377;SDS011;51982;51.042;13.806;2022-11-20T06:57:44;15.40;;;6.78;;
65377;SDS011;51982;51.042;13.806;2022-11-20T07:00:10;16.17;;;6.97;;
65377;SDS011;51982;51.042;13.806;2022-11-20T07:02:36;14.38;;;6.85;;
65377;SDS011;51982;51.042;13.806;2022-11-20T07:05:01;13.60;;;6.78;;
65377;SDS011;51982;51.042;13.806;2022-11-20T07:07:27;17.80;;;7.25;;
65377;SDS011;51982;51.042;13.806;2022-11-20T07:09:52;18.55;;;7.30;;
65377;SDS011;51982;51.042;13.806;2022-11-20T07:12:17;18.52;;;7.28;;
65377;SDS011;51982;51.042;13.806;2022-11-20T07:14:42;15.80;;;7.38;;
65377;SDS011;51982;51.042;13.806;2022-11-20T07:17:08;17.80;;;7.75;;
65377;SDS011;51982;51.042;13.806;2022-11-20T07:19:33;18.73;;;7.22;;
65377;SDS011;51982;51.042;13.806;2022-11-20T07:21:58;19.42;;;8.43;;
65377;SDS011;51982;51.042;13.806;2022-11-20T07:24:23;19.23;;;8.13;;
65377;SDS011;51982;51.042;13.806;2022-11-20T07:26:49;18.45;;;8.07;;
65377;SDS011;51982;51.042;13.806;2022-11-20T07:29:15;21.02;;;6.88;;
65377;SDS011;51982;51.042;13.806;2022-11-20T07:31:41;19.10;;;7.30;;
65377;SDS011;51982;51.042;13.806;2022-11-20T07:34:06;19.13;;;7.30;;
65377;SDS011;51982;51.042;13.806;2022-11-20T07:36:31;21.77;;;7.63;;
65377;SDS011;51982;51.042;13.806;2022-11-20T07:38:57;20.10;;;8.55;;
65377;SDS011;51982;51.042;13.806;2022-11-20T07:41:22;23.90;;;9.60;;
65377;SDS011;51982;51.042;13.806;2022-11-20T07:43:47;21.90;;;8.80;;
65377;SDS011;51982;51.042;13.806;2022-11-20T07:46:12;17.70;;;8.43;;
65377;SDS011;51982;51.042;13.806;2022-11-20T07:48:38;19.92;;;8.73;;
65377;SDS011;51982;51.042;13.806;2022-11-20T07:51:03;18.63;;;8.85;;
65377;SDS011;51982;51.042;13.806;2022-11-20T07:53:28;17.98;;;8.77;;
65377;SDS011;51982;51.042;13.806;2022-11-20T07:55:53;17.90;;;7.55;;
65377;SDS011;51982;51.042;13.806;2022-11-20T07:58:19;14.75;;;6.40;;
65377;SDS011;51982;51.042;13.806;2022-11-20T08:00:46;20.85;;;8.80;;
65377;SDS011;51982;51.042;13.806;2022-11-20T08:03:11;22.10;;;9.38;;
65377;SDS011;51982;51.042;13.806;2022-11-20T08:05:38;20.27;;;9.13;;
65377;SDS011;51982;51.042;13.806;2022-11-20T08:08:03;21.23;;;8.52;;
65377;SDS011;51982;51.042;13.806;2022-11-20T08:10:28;22.80;;;9.80;;
65377;SDS011;51982;51.042;13.806;2022-11-20T08:12:54;22.90;;;10.18;;
65377;SDS011;51982;51.042;13.806;2022-11-20T08:15:38;22.00;;;8.02;;
65377;SDS011;51982;51.042;13.806;2022-11-20T08:18:09;21.90;;;10.13;;
65377;SDS011;51982;51.042;13.806;2022-11-20T08:20:46;22.77;;;9.85;;
65377;SDS011;51982;51.042;13.806;2022-11-20T08:23:11;22.40;;;10.63;;
65377;SDS011;51982;51.042;13.806;2022-11-20T08:25:37;20.83;;;9.27;;
65377;SDS011;51982;51.042;13.806;2022-11-20T08:28:04;21.42;;;9.68;;
65377;SDS011;51982;51.042;13.806;2022-11-20T08:30:31;17.98;;;8.50;;
65377;SDS011;51982;51.042;13.806;2022-11-20T08:33:01;20.98;;;9.75;;
65377;SDS011;51982;51.042;13.806;2022-11-20T08:35:28;23.75;;;10.18;;
65377;SDS011;51982;51.042;13.806;2022-11-20T08:37:53;20.70;;;10.05;;
65377;SDS011;51982;51.042;13.806;2022-11-20T08:40:18;22.58;;;8.95;;
65377;SDS011;51982;51.042;13.806;2022-11-20T08:42:47;18.38;;;8.68;;
65377;SDS011;51982;51.042;13.806;2022-11-20T08:45:13;25.38;;;10.48;;
65377;SDS011;51982;51.042;13.806;2022-11-20T08:47:38;25.38;;;10.35;;
65377;SDS011;51982;51.042;13.806;2022-11-20T08:50:04;27.13;;;10.63;;
65377;SDS011;51982;51.042;13.806;2022-11-20T08:52:29;25.98;;;10.48;;
65377;SDS011;51982;51.042;13.806;2022-11-20T08:54:57;21.83;;;9.57;;
65377;SDS011;51982;51.042;13.806;2022-11-20T08:57:22;27.80;;;10.85;;
65377;SDS011;51982;51.042;13.806;2022-11-20T08:59:48;21.30;;;9.43;;
65377;SDS011;51982;51.042;13.806;2022-11-20T09:02:13;22.15;;;10.20;;
65377;SDS011;51982;51.042;13.806;2022-11-20T09:04:39;24.92;;;9.77;;
65377;SDS011;51982;51.042;13.806;2022-11-20T09:07:04;23.45;;;10.10;;
65377;SDS011;51982;51.042;13.806;2022-11-20T09:09:29;22.25;;;9.02;;
65377;SDS011;51982;51.042;13.806;2022-11-20T09:11:54;24.10;;;10.23;;
65377;SDS011;51982;51.042;13.806;2022-11-20T09:14:20;25.40;;;9.85;;
65377;SDS011;51982;51.042;13.806;2022-11-20T09:16:46;22.38;;;10.80;;
65377;SDS011;51982;51.042;13.806;2022-11-20T09:19:11;26.52;;;10.00;;
65377;SDS011;51982;51.042;13.806;2022-11-20T09:21:37;19.33;;;8.68;;
65377;SDS011;51982;51.042;13.806;2022-11-20T09:24:02;22.23;;;9.27;;
65377;SDS011;51982;51.042;13.806;2022-11-20T09:26:27;19.50;;;8.85;;
65377;SDS011;51982;51.042;13.806;2022-11-20T09:28:53;20.02;;;7.93;;
65377;SDS011;51982;51.042;13.806;2022-11-20T09:31:22;20.27;;;9.43;;
65377;SDS011;51982;51.042;13.806;2022-11-20T09:33:49;17.67;;;8.43;;
65377;SDS011;51982;51.042;13.806;2022-11-20T09:36:14;19.27;;;8.43;;
65377;SDS011;51982;51.042;13.806;2022-11-20T09:38:40;20.65;;;8.85;;
65377;SDS011;51982;51.042;13.806;2022-11-20T09:41:06;19.48;;;7.75;;
65377;SDS011;51982;51.042;13.806;2022-11-20T09:52:21;14.82;;;7.35;;
65377;SDS011;51982;51.042;13.806;2022-11-20T09:54:55;12.75;;;5.85;;
65377;SDS011;51982;51.042;13.806;2022-11-20T09:57:22;17.23;;;6.72;;
65377;SDS011;51982;51.042;13.806;2022-11-20T10:00:04;15.35;;;7.38;;
65377;SDS011;51982;51.042;13.806;2022-11-20T10:02:39;16.65;;;7.65;;
65377;SDS011;51982;51.042;13.806;2022-11-20T10:05:20;16.77;;;7.32;;
65377;SDS011;51982;51.042;13.806;2022-11-20T10:07:54;12.30;;;6.05;;
65377;SDS011;51982;51.042;13.806;2022-11-20T10:13:17;12.75;;;6.22;;
65377;SDS011;51982;51.042;13.806;2022-11-20T10:24:23;13.73;;;6.53;;
65377;SDS011;51982;51.042;13.806;2022-11-20T10:27:23;9.85;;;5.03;;
65377;SDS011;51982;51.042;13.806;2022-11-20T10:30:11;13.07;;;5.32;;
65377;SDS011;51982;51.042;13.806;2022-11-20T10:32:42;12.80;;;4.88;;
65377;SDS011;51982;51.042;13.806;2022-11-20T10:37:58;11.63;;;5.63;;
65377;SDS011;51982;51.042;13.806;2022-11-20T10:43:01;13.52;;;5.93;;
65377;SDS011;51982;51.042;13.806;2022-11-20T10:48:39;12.00;;;5.40;;
65377;SDS011;51982;51.042;13.806;2022-11-20T10:51:18;9.27;;;4.68;;
65377;SDS011;51982;51.042;13.806;2022-11-20T10:53:56;9.30;;;5.10;;
65377;SDS011;51982;51.042;13.806;2022-11-20T10:59:24;9.65;;;4.93;;
65377;SDS011;51982;51.042;13.806;2022-11-20T11:01:58;10.00;;;4.55;;
65377;SDS011;51982;51.042;13.806;2022-11-20T11:04:30;11.43;;;5.75;;
65377;SDS011;51982;51.042;13.806;2022-11-20T11:07:04;11.80;;;5.80;;
65377;SDS011;51982;51.042;13.806;2022-11-20T11:09:33;14.45;;;6.88;;
65377;SDS011;51982;51.042;13.806;2022-11-20T11:12:01;16.88;;;6.82;;
65377;SDS011;51982;51.042;13.806;2022-11-20T11:14:31;11.52;;;5.60;;
65377;SDS011;51982;51.042;13.806;2022-11-20T11:17:17;11.98;;;5.65;;
65377;SDS011;51982;51.042;13.806;2022-11-20T11:19:45;11.73;;;6.03;;
65377;SDS011;51982;51.042;13.806;2022-11-20T11:22:11;15.45;;;6.10;;
65377;SDS011;51982;51.042;13.806;2022-11-20T11:24:50;11.07;;;5.32;;
65377;SDS011;51982;51.042;13.806;2022-11-20T11:27:17;12.98;;;6.05;;
65377;SDS011;51982;51.042;13.806;2022-11-20T11:29:42;13.00;;;5.55;;
65377;SDS011;51982;51.042;13.806;2022-11-20T11:32:11;11.55;;;5.53;;
65377;SDS011;51982;51.042;13.806;2022-11-20T11:37:12;11.00;;;5.35;;
65377;SDS011;51982;51.042;13.806;2022-11-20T11:39:42;13.90;;;6.20;;
65377;SDS011;51982;51.042;13.806;2022-11-20T11:42:11;13.65;;;5.85;;
65377;SDS011;51982;51.042;13.806;2022-11-20T11:44:43;12.07;;;5.80;;
65377;SDS011;51982;51.042;13.806;2022-11-20T11:47:44;13.38;;;5.78;;
65377;SDS011;51982;51.042;13.806;2022-11-20T11:55:28;10.85;;;5.15;;
65377;SDS011;51982;51.042;13.806;2022-11-20T12:00:45;9.85;;;4.88;;
65377;SDS011;51982;51.042;13.806;2022-11-20T12:03:24;11.80;;;5.65;;
65377;SDS011;51982;51.042;13.806;2022-11-20T12:05:56;7.55;;;3.53;;
65377;SDS011;51982;51.042;13.806;2022-11-20T12:08:30;7.85;;;3.92;;
65377;SDS011;51982;51.042;13.806;2022-11-20T12:16:03;8.88;;;4.40;;
65377;SDS011;51982;51.042;13.806;2022-11-20T12:18:29;9.20;;;4.28;;
65377;SDS011;51982;51.042;13.806;2022-11-20T12:26:53;9.10;;;4.05;;
65377;SDS011;51982;51.042;13.806;2022-11-20T12:29:48;7.85;;;3.95;;
65377;SDS011;51982;51.042;13.806;2022-11-20T12:49:38;10.25;;;4.93;;
65377;SDS011;51982;51.042;13.806;2022-11-20T12:52:16;9.30;;;4.47;;
65377;SDS011;51982;51.042;13.806;2022-11-20T12:55:08;7.50;;;4.00;;
65377;SDS011;51982;51.042;13.806;2022-11-20T12:57:49;8.80;;;3.90;;
65377;SDS011;51982;51.042;13.806;2022-11-20T13:00:19;9.90;;;4.95;;
65377;SDS011;51982;51.042;13.806;2022-11-20T13:02:54;8.32;;;4.45;;
65377;SDS011;51982;51.042;13.806;2022-11-20T13:08:34;10.32;;;4.22;;
65377;SDS011;51982;51.042;13.806;2022-11-20T13:14:12;10.02;;;4.60;;
65377;SDS011;51982;51.042;13.806;2022-11-20T13:19:34;9.18;;;4.35;;
65377;SDS011;51982;51.042;13.806;2022-11-20T13:22:00;6.05;;;3.40;;
65377;SDS011;51982;51.042;13.806;2022-11-20T13:24:27;9.48;;;4.38;;
65377;SDS011;51982;51.042;13.806;2022-11-20T13:27:04;7.68;;;4.30;;
65377;SDS011;51982;51.042;13.806;2022-11-20T13:29:33;8.20;;;4.03;;
65377;SDS011;51982;51.042;13.806;2022-11-20T13:32:04;9.25;;;4.40;;
65377;SDS011;51982;51.042;13.806;2022-11-20T13:34:29;8.88;;;4.40;;
65377;SDS011;51982;51.042;13.806;2022-11-20T13:36:55;9.40;;;4.60;;
65377;SDS011;51982;51.042;13.806;2022-11-20T13:39:33;8.52;;;4.07;;
65377;SDS011;51982;51.042;13.806;2022-11-20T13:42:01;9.00;;;4.57;;
65377;SDS011;51982;51.042;13.806;2022-11-20T13:44:48;9.43;;;4.78;;
65377;SDS011;51982;51.042;13.806;2022-11-20T13:47:22;8.55;;;4.35;;
65377;SDS011;51982;51.042;13.806;2022-11-20T13:49:49;7.80;;;4.18;;
65377;SDS011;51982;51.042;13.806;2022-11-20T13:55:23;7.82;;;3.80;;
65377;SDS011;51982;51.042;13.806;2022-11-20T14:00:55;6.63;;;3.85;;
65377;SDS011;51982;51.042;13.806;2022-11-20T14:03:24;7.80;;;4.20;;
65377;SDS011;51982;51.042;13.806;2022-11-20T14:05:56;8.07;;;3.97;;
65377;SDS011;51982;51.042;13.806;2022-11-20T14:08:36;6.65;;;3.72;;
65377;SDS011;51982;51.042;13.806;2022-11-20T14:11:05;9.35;;;5.13;;
65377;SDS011;51982;51.042;13.806;2022-11-20T14:13:39;7.85;;;3.63;;
65377;SDS011;51982;51.042;13.806;2022-11-20T14:16:26;6.00;;;3.13;;
65377;SDS011;51982;51.042;13.806;2022-11-20T14:18:53;6.63;;;3.72;;
65377;SDS011;51982;51.042;13.806;2022-11-20T14:21:26;6.47;;;3.28;;
65377;SDS011;51982;51.042;13.806;2022-11-20T14:24:18;6.63;;;3.88;;
65377;SDS011;51982;51.042;13.806;2022-11-20T14:26:44;7.47;;;3.65;;
65377;SDS011;51982;51.042;13.806;2022-11-20T14:31:47;8.00;;;4.10;;
65377;SDS011;51982;51.042;13.806;2022-11-20T14:34:17;7.40;;;4.22;;
65377;SDS011;51982;51.042;13.806;2022-11-20T14:36:45;9.43;;;4.50;;
65377;SDS011;51982;51.042;13.806;2022-11-20T14:39:11;7.35;;;3.63;;
65377;SDS011;51982;51.042;13.806;2022-11-20T14:41:50;9.25;;;4.20;;
65377;SDS011;51982;51.042;13.806;2022-11-20T14:46:51;6.88;;;3.47;;
65377;SDS011;51982;51.042;13.806;2022-11-20T14:49:17;7.15;;;3.90;;
65377;SDS011;51982;51.042;13.806;2022-11-20T14:51:43;8.07;;;4.35;;
65377;SDS011;51982;51.042;13.806;2022-11-20T14:54:16;8.10;;;3.78;;
65377;SDS011;51982;51.042;13.806;2022-11-20T14:59:22;8.00;;;4.35;;
65377;SDS011;51982;51.042;13.806;2022-11-20T15:02:25;8.57;;;4.95;;
65377;SDS011;51982;51.042;13.806;2022-11-20T15:04:47;8.10;;;4.47;;
65377;SDS011;51982;51.042;13.806;2022-11-20T15:07:27;10.38;;;4.72;;
65377;SDS011;51982;51.042;13.806;2022-11-20T15:10:06;11.32;;;4.35;;
65377;SDS011;51982;51.042;13.806;2022-11-20T15:12:37;9.07;;;4.70;;
65377;SDS011;51982;51.042;13.806;2022-11-20T15:15:05;8.88;;;4.97;;
65377;SDS011;51982;51.042;13.806;2022-11-20T15:17:34;10.93;;;5.00;;
65377;SDS011;51982;51.042;13.806;2022-11-20T15:20:03;8.70;;;4.68;;
65377;SDS011;51982;51.042;13.806;2022-11-20T15:22:34;10.23;;;5.22;;
65377;SDS011;51982;51.042;13.806;2022-11-20T15:25:00;11.38;;;5.20;;
65377;SDS011;51982;51.042;13.806;2022-11-20T15:27:25;11.82;;;5.40;;
65377;SDS011;51982;51.042;13.806;2022-11-20T15:29:50;10.75;;;5.10;;
65377;SDS011;51982;51.042;13.806;2022-11-20T15:32:15;13.43;;;5.57;;
65377;SDS011;51982;51.042;13.806;2022-11-20T15:34:41;12.02;;;5.43;;
65377;SDS011;51982;51.042;13.806;2022-11-20T15:37:06;13.15;;;5.88;;
65377;SDS011;51982;51.042;13.806;2022-11-20T15:39:31;14.02;;;5.78;;
65377;SDS011;51982;51.042;13.806;2022-11-20T15:41:57;11.63;;;5.50;;
65377;SDS011;51982;51.042;13.806;2022-11-20T15:44:22;14.85;;;6.65;;
65377;SDS011;51982;51.042;13.806;2022-11-20T15:46:47;11.40;;;5.43;;
65377;SDS011;51982;51.042;13.806;2022-11-20T15:49:13;11.88;;;5.80;;
65377;SDS011;51982;51.042;13.806;2022-11-20T15:51:41;11.35;;;5.85;;
65377;SDS011;51982;51.042;13.806;2022-11-20T15:54:12;12.60;;;6.40;;
65377;SDS011;51982;51.042;13.806;2022-11-20T15:56:44;12.93;;;6.18;;
65377;SDS011;51982;51.042;13.806;2022-11-20T15:59:10;13.20;;;6.80;;
65377;SDS011;51982;51.042;13.806;2022-11-20T16:01:35;12.57;;;6.68;;
65377;SDS011;51982;51.042;13.806;2022-11-20T16:04:01;11.55;;;6.30;;
65377;SDS011;51982;51.042;13.806;2022-11-20T16:06:26;12.52;;;6.03;;
65377;SDS011;51982;51.042;13.806;2022-11-20T16:08:51;12.98;;;7.05;;